createdAt,value
2023-05-14T00:00:35.859Z,86.36
2023-05-14T00:01:35.856Z,86.98
2023-05-14T00:02:35.941Z,88.04
2023-05-14T00:03:35.888Z,88.35
2023-05-14T00:04:35.869Z,88.35
2023-05-14T00:05:35.821Z,88.80
2023-05-14T00:06:35.827Z,88.76
2023-05-14T00:07:36.810Z,88.39
2023-05-14T00:08:35.813Z,88.49
2023-05-14T00:09:35.797Z,88.76
2023-05-14T00:10:35.789Z,87.90
2023-05-14T00:11:35.786Z,87.18
2023-05-14T00:12:35.788Z,86.26
2023-05-14T00:13:35.765Z,86.46
2023-05-14T00:14:35.774Z,85.30
2023-05-14T00:15:35.768Z,84.79
2023-05-14T00:16:35.914Z,84.79
2023-05-14T00:17:35.825Z,84.89
2023-05-14T00:18:35.781Z,85.71
2023-05-14T00:19:35.734Z,85.30
2023-05-14T00:20:35.729Z,84.95
2023-05-14T00:21:35.732Z,84.38
2023-05-14T00:22:35.726Z,84.69
2023-05-14T00:23:35.723Z,84.58
2023-05-14T00:24:35.721Z,84.79
2023-05-14T00:25:35.718Z,84.79
2023-05-14T00:26:35.699Z,84.69
2023-05-14T00:27:35.718Z,84.69
2023-05-14T00:28:35.676Z,84.48
2023-05-14T00:29:35.670Z,84.28
2023-05-14T00:30:35.658Z,84.28
2023-05-14T00:31:35.740Z,84.99
2023-05-14T00:32:35.699Z,84.89
2023-05-14T00:33:35.645Z,86.26
2023-05-14T00:34:35.637Z,85.85
2023-05-14T00:35:35.627Z,85.55
2023-05-14T00:36:35.625Z,85.24
2023-05-14T00:37:35.650Z,85.14
2023-05-14T00:38:35.616Z,85.85
2023-05-14T00:39:35.610Z,86.36
2023-05-14T00:40:35.614Z,86.46
2023-05-14T00:41:35.615Z,85.34
2023-05-14T00:42:35.597Z,85.96
2023-05-14T00:43:35.604Z,85.75
2023-05-14T00:44:35.565Z,85.89
2023-05-14T00:45:35.561Z,86.20
2023-05-14T00:46:35.600Z,86.61
2023-05-14T00:47:35.584Z,86.24
2023-05-14T00:48:35.552Z,86.40
2023-05-14T00:49:35.563Z,85.89
2023-05-14T00:50:35.533Z,85.69
2023-05-14T00:51:35.526Z,85.72
2023-05-14T00:52:35.525Z,85.58
2023-05-14T00:53:35.567Z,86.04
2023-05-14T00:54:35.505Z,86.55
2023-05-14T00:55:35.501Z,87.98
2023-05-14T00:56:35.501Z,86.85
2023-05-14T00:57:35.496Z,87.20
2023-05-14T00:58:35.492Z,87.30
2023-05-14T00:59:35.485Z,87.61
2023-05-14T01:00:35.527Z,88.02
2023-05-14T01:01:35.528Z,88.33
2023-05-14T01:02:35.538Z,88.23
2023-05-14T01:03:35.620Z,87.71
2023-05-14T01:04:35.440Z,87.51
2023-05-14T01:05:35.460Z,87.92
2023-05-14T01:06:35.423Z,88.02
2023-05-14T01:07:35.427Z,88.33
2023-05-14T01:08:35.412Z,88.23
2023-05-14T01:09:35.410Z,88.02
2023-05-14T01:10:35.423Z,88.23
2023-05-14T01:11:35.399Z,88.64
2023-05-14T01:12:35.395Z,88.74
2023-05-14T01:13:35.393Z,88.74
2023-05-14T01:14:35.380Z,88.64
2023-05-14T01:15:35.414Z,88.53
2023-05-14T01:16:35.390Z,88.43
2023-05-14T01:17:35.374Z,87.61
2023-05-14T01:18:35.565Z,88.57
2023-05-14T01:19:35.349Z,88.84
2023-05-14T01:20:35.367Z,88.74
2023-05-14T01:21:35.351Z,89.70
2023-05-14T01:22:35.329Z,90.62
2023-05-14T01:23:35.325Z,91.03
2023-05-14T01:24:35.319Z,91.50
2023-05-14T01:25:35.445Z,92.06
2023-05-14T01:26:35.321Z,91.86
2023-05-14T01:27:35.290Z,92.06
2023-05-14T01:28:35.291Z,92.06
2023-05-14T01:29:35.271Z,92.57
2023-05-14T01:30:35.297Z,92.06
2023-05-14T01:31:35.297Z,91.35
2023-05-14T01:32:35.337Z,91.65
2023-05-14T01:33:35.265Z,91.35
2023-05-14T01:34:35.242Z,91.24
2023-05-14T01:35:35.257Z,91.14
2023-05-14T01:36:35.222Z,90.89
2023-05-14T01:37:35.224Z,91.30
2023-05-14T01:38:35.230Z,90.99
2023-05-14T01:39:35.274Z,90.69
2023-05-14T01:40:35.250Z,90.79
2023-05-14T01:41:35.218Z,90.54
2023-05-14T01:42:35.192Z,90.48
2023-05-14T01:43:35.295Z,90.69
2023-05-14T01:44:35.175Z,89.56
2023-05-14T01:45:35.189Z,88.94
2023-05-14T01:46:35.182Z,88.84
2023-05-14T01:47:35.173Z,88.84
2023-05-14T01:48:35.275Z,88.74
2023-05-14T01:49:35.154Z,88.64
2023-05-14T01:50:35.148Z,88.74
2023-05-14T01:51:35.154Z,90.62
2023-05-14T01:52:35.135Z,90.52
2023-05-14T01:53:35.123Z,90.62
2023-05-14T01:54:35.132Z,90.22
2023-05-14T01:55:35.109Z,90.62
2023-05-14T01:56:35.146Z,91.24
2023-05-14T01:57:35.108Z,91.08
2023-05-14T01:58:35.086Z,90.87
2023-05-14T01:59:35.105Z,90.62
2023-05-14T02:00:35.078Z,90.52
2023-05-14T02:01:35.134Z,90.36
2023-05-14T02:02:35.104Z,90.52
2023-05-14T02:03:35.091Z,90.67
2023-05-14T02:04:35.054Z,90.77
2023-05-14T02:05:35.045Z,90.77
2023-05-14T02:06:35.037Z,90.36
2023-05-14T02:07:35.037Z,90.87
2023-05-14T02:08:35.034Z,90.97
2023-05-14T02:09:35.018Z,91.42
2023-05-14T02:10:35.018Z,92.14
2023-05-14T02:11:35.002Z,93.07
2023-05-14T02:12:35.027Z,94.14
2023-05-14T02:13:35.018Z,93.68
2023-05-14T02:14:34.987Z,93.93
2023-05-14T02:15:35.036Z,93.79
2023-05-14T02:16:34.993Z,94.20
2023-05-14T02:17:35.024Z,94.51
2023-05-14T02:18:34.973Z,94.20
2023-05-14T02:19:34.957Z,93.99
2023-05-14T02:20:35.081Z,93.74
2023-05-14T02:21:34.925Z,93.17
2023-05-14T02:22:34.929Z,93.23
2023-05-14T02:23:41.602Z,93.89
2023-05-14T02:24:36.904Z,93.54
2023-05-14T02:25:34.929Z,93.33
2023-05-14T02:26:34.903Z,92.72
2023-05-14T02:27:34.892Z,93.23
2023-05-14T02:28:34.886Z,92.41
2023-05-14T02:29:34.874Z,91.80
2023-05-14T02:30:34.886Z,90.56
2023-05-14T02:31:34.934Z,90.50
2023-05-14T02:32:34.962Z,90.67
2023-05-14T02:33:34.888Z,90.71
2023-05-14T02:34:34.852Z,90.61
2023-05-14T02:35:34.860Z,90.30
2023-05-14T02:36:34.856Z,90.40
2023-05-14T02:37:34.852Z,90.75
2023-05-14T02:38:34.839Z,90.85
2023-05-14T02:39:34.818Z,90.65
2023-05-14T02:40:34.804Z,91.06
2023-05-14T02:41:34.797Z,90.91
2023-05-14T02:42:35.843Z,91.53
2023-05-14T02:43:34.829Z,91.33
2023-05-14T02:44:34.785Z,91.74
2023-05-14T02:45:34.770Z,91.42
2023-05-14T02:46:34.785Z,91.42
2023-05-14T02:47:37.518Z,92.29
2023-05-14T02:48:34.767Z,93.63
2023-05-14T02:49:34.740Z,95.02
2023-05-14T02:50:34.760Z,95.06
2023-05-14T02:51:34.731Z,95.37
2023-05-14T02:52:34.733Z,95.78
2023-05-14T02:53:34.718Z,95.89
2023-05-14T02:54:34.711Z,95.47
2023-05-14T02:55:34.734Z,95.57
2023-05-14T02:56:34.726Z,94.76
2023-05-14T02:57:34.688Z,94.76
2023-05-14T02:58:34.685Z,95.32
2023-05-14T02:59:34.681Z,94.61
2023-05-14T03:00:34.703Z,94.20
2023-05-14T03:01:34.704Z,93.68
2023-05-14T03:02:34.732Z,92.97
2023-05-14T03:03:34.660Z,92.14
2023-05-14T03:04:34.641Z,91.74
2023-05-14T03:05:34.643Z,91.22
2023-05-14T03:06:34.701Z,90.50
2023-05-14T03:07:34.623Z,90.50
2023-05-14T03:08:34.617Z,90.50
2023-05-14T03:09:36.717Z,91.08
2023-05-14T03:10:34.607Z,91.22
2023-05-14T03:11:34.632Z,91.02
2023-05-14T03:12:34.615Z,91.02
2023-05-14T03:13:34.613Z,91.02
2023-05-14T03:14:34.585Z,90.61
2023-05-14T03:15:34.585Z,90.61
2023-05-14T03:16:34.624Z,91.22
2023-05-14T03:17:34.592Z,92.04
2023-05-14T03:18:34.605Z,93.93
2023-05-14T03:19:34.545Z,94.96
2023-05-14T03:20:34.546Z,95.37
2023-05-14T03:21:34.563Z,95.57
2023-05-14T03:22:34.540Z,96.09
2023-05-14T03:23:34.548Z,95.78
2023-05-14T03:24:34.516Z,95.89
2023-05-14T03:25:34.548Z,96.19
2023-05-14T03:26:34.501Z,96.50
2023-05-14T03:27:34.534Z,96.30
2023-05-14T03:28:34.513Z,96.35
2023-05-14T03:29:34.505Z,96.35
2023-05-14T03:30:34.542Z,96.04
2023-05-14T03:31:34.505Z,95.79
2023-05-14T03:32:34.556Z,95.59
2023-05-14T03:33:34.461Z,94.67
2023-05-14T03:34:34.453Z,95.07
2023-05-14T03:35:34.467Z,94.46
2023-05-14T03:36:34.433Z,93.95
2023-05-14T03:37:34.428Z,93.74
2023-05-14T03:38:34.437Z,92.98
2023-05-14T03:39:34.431Z,92.78
2023-05-14T03:40:34.435Z,92.27
2023-05-14T03:41:34.408Z,91.96
2023-05-14T03:42:34.400Z,92.16
2023-05-14T03:43:34.375Z,92.16
2023-05-14T03:44:34.395Z,92.32
2023-05-14T03:45:34.398Z,93.08
2023-05-14T03:46:34.381Z,92.88
2023-05-14T03:47:34.394Z,92.98
2023-05-14T03:48:34.409Z,92.63
2023-05-14T03:49:34.384Z,92.83
2023-05-14T03:50:35.356Z,92.12
2023-05-14T03:51:34.342Z,91.61
2023-05-14T03:52:34.348Z,91.65
2023-05-14T03:53:34.332Z,92.06
2023-05-14T03:54:34.322Z,92.63
2023-05-14T03:55:34.329Z,93.60
2023-05-14T03:56:34.308Z,93.60
2023-05-14T03:57:34.287Z,93.49
2023-05-14T03:58:34.285Z,92.98
2023-05-14T03:59:34.327Z,92.98
2023-05-14T04:00:34.295Z,92.68
2023-05-14T04:01:34.267Z,92.98
2023-05-14T04:02:34.370Z,92.88
2023-05-14T04:03:34.415Z,93.19
2023-05-14T04:04:34.271Z,92.98
2023-05-14T04:05:34.244Z,92.68
2023-05-14T04:06:34.256Z,92.83
2023-05-14T04:07:34.229Z,92.74
2023-05-14T04:08:34.215Z,92.94
2023-05-14T04:09:34.226Z,92.57
2023-05-14T04:10:34.218Z,92.83
2023-05-14T04:11:34.224Z,92.63
2023-05-14T04:12:34.192Z,92.02
2023-05-14T04:13:34.193Z,92.83
2023-05-14T04:14:35.040Z,92.32
2023-05-14T04:15:34.186Z,91.97
2023-05-14T04:16:34.192Z,92.49
2023-05-14T04:17:35.135Z,92.08
2023-05-14T04:18:35.229Z,92.08
2023-05-14T04:19:34.145Z,91.97
2023-05-14T04:20:34.147Z,91.31
2023-05-14T04:21:34.133Z,91.31
2023-05-14T04:22:34.138Z,91.01
2023-05-14T04:23:34.141Z,90.81
2023-05-14T04:24:34.125Z,90.91
2023-05-14T04:25:34.111Z,91.11
2023-05-14T04:26:34.104Z,90.91
2023-05-14T04:27:34.104Z,90.77
2023-05-14T04:28:34.091Z,91.07
2023-05-14T04:29:34.103Z,90.86
2023-05-14T04:30:34.131Z,90.97
2023-05-14T04:31:34.134Z,90.82
2023-05-14T04:32:34.093Z,90.21
2023-05-14T04:33:34.064Z,90.62
2023-05-14T04:34:34.100Z,89.50
2023-05-14T04:35:34.057Z,89.29
2023-05-14T04:36:34.046Z,88.88
2023-05-14T04:37:34.038Z,88.98
2023-05-14T04:38:34.036Z,89.39
2023-05-14T04:39:34.014Z,88.64
2023-05-14T04:40:34.031Z,89.39
2023-05-14T04:41:33.989Z,90.36
2023-05-14T04:42:33.998Z,90.21
2023-05-14T04:43:34.020Z,91.07
2023-05-14T04:44:33.996Z,91.48
2023-05-14T04:45:34.454Z,91.48
2023-05-14T04:46:35.035Z,91.78
2023-05-14T04:47:34.066Z,92.75
2023-05-14T04:48:33.950Z,92.55
2023-05-14T04:49:33.961Z,92.85
2023-05-14T04:50:33.948Z,93.57
2023-05-14T04:51:33.959Z,93.43
2023-05-14T04:52:33.933Z,93.32
2023-05-14T04:53:33.916Z,92.91
2023-05-14T04:54:33.972Z,93.22
2023-05-14T04:55:33.938Z,93.22
2023-05-14T04:56:33.907Z,93.12
2023-05-14T04:57:33.914Z,93.52
2023-05-14T04:58:35.112Z,93.12
2023-05-14T04:59:34.907Z,93.22
2023-05-14T05:00:33.900Z,93.88
2023-05-14T05:01:33.930Z,94.04
2023-05-14T05:02:33.890Z,93.73
2023-05-14T05:03:33.926Z,93.98
2023-05-14T05:04:34.861Z,93.57
2023-05-14T05:05:33.882Z,93.84
2023-05-14T05:06:33.843Z,93.43
2023-05-14T05:07:33.863Z,93.73
2023-05-14T05:08:33.825Z,93.93
2023-05-14T05:09:33.829Z,93.84
2023-05-14T05:10:33.821Z,93.84
2023-05-14T05:11:33.820Z,94.04
2023-05-14T05:12:33.833Z,93.73
2023-05-14T05:13:33.804Z,93.69
2023-05-14T05:14:33.793Z,93.38
2023-05-14T05:15:33.802Z,93.18
2023-05-14T05:16:33.831Z,93.48
2023-05-14T05:17:33.819Z,93.07
2023-05-14T05:18:33.870Z,92.97
2023-05-14T05:19:43.092Z,93.38
2023-05-14T05:20:35.870Z,93.59
2023-05-14T05:21:33.776Z,92.97
2023-05-14T05:22:33.766Z,92.97
2023-05-14T05:23:33.769Z,93.38
2023-05-14T05:24:33.748Z,93.44
2023-05-14T05:25:33.734Z,93.54
2023-05-14T05:26:33.726Z,93.13
2023-05-14T05:27:33.707Z,92.72
2023-05-14T05:28:33.739Z,92.72
2023-05-14T05:29:33.716Z,92.37
2023-05-14T05:30:33.689Z,92.68
2023-05-14T05:31:33.722Z,92.37
2023-05-14T05:32:33.734Z,91.86
2023-05-14T05:33:33.718Z,92.17
2023-05-14T05:34:33.685Z,91.86
2023-05-14T05:35:33.675Z,91.92
2023-05-14T05:36:33.690Z,91.72
2023-05-14T05:37:33.649Z,91.11
2023-05-14T05:38:33.685Z,91.00
2023-05-14T05:39:33.638Z,90.45
2023-05-14T05:40:33.624Z,90.45
2023-05-14T05:41:33.627Z,90.25
2023-05-14T05:42:33.619Z,90.14
2023-05-14T05:43:33.646Z,89.59
2023-05-14T05:44:33.682Z,90.10
2023-05-14T05:45:33.601Z,89.63
2023-05-14T05:46:33.619Z,90.04
2023-05-14T05:47:33.599Z,90.10
2023-05-14T05:48:33.580Z,90.00
2023-05-14T05:49:33.611Z,90.20
2023-05-14T05:50:33.641Z,90.20
2023-05-14T05:51:33.602Z,90.26
2023-05-14T05:52:33.561Z,89.14
2023-05-14T05:53:33.546Z,88.53
2023-05-14T05:54:33.558Z,88.63
2023-05-14T05:55:33.577Z,88.28
2023-05-14T05:56:33.531Z,88.22
2023-05-14T05:57:33.532Z,88.08
2023-05-14T05:58:33.506Z,88.18
2023-05-14T05:59:33.526Z,88.18
2023-05-14T06:00:33.519Z,87.98
2023-05-14T06:01:33.495Z,87.47
2023-05-14T06:02:33.652Z,87.53
2023-05-14T06:03:33.519Z,87.26
2023-05-14T06:04:33.513Z,87.26
2023-05-14T06:05:33.500Z,87.84
2023-05-14T06:06:34.348Z,87.53
2023-05-14T06:07:33.476Z,87.53
2023-05-14T06:08:33.458Z,87.73
2023-05-14T06:09:33.467Z,87.38
2023-05-14T06:10:33.449Z,87.38
2023-05-14T06:11:33.448Z,87.79
2023-05-14T06:12:33.452Z,87.59
2023-05-14T06:13:33.429Z,86.83
2023-05-14T06:14:33.455Z,86.43
2023-05-14T06:15:33.417Z,85.88
2023-05-14T06:16:33.480Z,86.59
2023-05-14T06:17:33.461Z,85.68
2023-05-14T06:18:33.446Z,85.78
2023-05-14T06:19:33.416Z,85.27
2023-05-14T06:20:33.389Z,85.06
2023-05-14T06:21:33.384Z,84.25
2023-05-14T06:22:33.389Z,84.25
2023-05-14T06:23:33.370Z,84.45
2023-05-14T06:24:33.370Z,84.01
2023-05-14T06:25:33.362Z,83.70
2023-05-14T06:26:33.354Z,83.91
2023-05-14T06:27:33.375Z,83.91
2023-05-14T06:28:33.325Z,83.81
2023-05-14T06:29:33.327Z,83.91
2023-05-14T06:30:33.321Z,83.81
2023-05-14T06:31:33.393Z,84.01
2023-05-14T06:32:33.375Z,84.05
2023-05-14T06:33:33.320Z,84.66
2023-05-14T06:34:33.338Z,84.97
2023-05-14T06:35:33.297Z,85.03
2023-05-14T06:36:33.280Z,84.92
2023-05-14T06:37:33.272Z,84.78
2023-05-14T06:38:33.267Z,84.17
2023-05-14T06:39:33.254Z,84.38
2023-05-14T06:40:33.297Z,84.13
2023-05-14T06:41:33.241Z,84.03
2023-05-14T06:42:33.234Z,82.98
2023-05-14T06:43:33.227Z,82.57
2023-05-14T06:44:33.220Z,82.47
2023-05-14T06:45:33.408Z,82.78
2023-05-14T06:46:33.210Z,83.08
2023-05-14T06:47:33.223Z,82.84
2023-05-14T06:48:33.246Z,83.31
2023-05-14T06:49:33.183Z,80.06
2023-05-14T06:50:33.180Z,80.43
2023-05-14T06:51:33.207Z,80.39
2023-05-14T06:52:33.161Z,80.86
2023-05-14T06:53:33.151Z,80.41
2023-05-14T06:54:33.143Z,79.77
2023-05-14T06:55:33.136Z,76.73
2023-05-14T06:56:33.151Z,78.15
2023-05-14T06:57:33.135Z,75.68
2023-05-14T06:58:33.114Z,75.34
2023-05-14T06:59:33.117Z,75.14
2023-05-14T07:00:33.104Z,75.81
2023-05-14T07:01:33.157Z,73.25
2023-05-14T07:02:33.168Z,73.46
2023-05-14T07:03:33.110Z,73.75
2023-05-14T07:04:33.174Z,73.82
2023-05-14T07:05:33.067Z,72.88
2023-05-14T07:06:33.090Z,72.58
2023-05-14T07:07:33.052Z,71.53
2023-05-14T07:08:33.034Z,71.60
2023-05-14T07:09:33.041Z,70.19
2023-05-14T07:10:33.035Z,69.28
2023-05-14T07:11:33.016Z,69.68
2023-05-14T07:12:33.029Z,68.65
2023-05-14T07:13:33.009Z,69.18
2023-05-14T07:14:32.988Z,69.55
2023-05-14T07:15:32.980Z,70.12
2023-05-14T07:16:33.054Z,68.11
2023-05-14T07:17:33.011Z,69.18
2023-05-14T07:18:33.042Z,69.29
2023-05-14T07:19:32.994Z,66.97
2023-05-14T07:20:32.993Z,68.98
2023-05-14T07:21:32.952Z,67.24
2023-05-14T07:22:32.946Z,68.41
2023-05-14T07:23:32.952Z,67.38
2023-05-14T07:24:32.968Z,67.35
2023-05-14T07:25:32.933Z,65.60
2023-05-14T07:26:32.917Z,64.64
2023-05-14T07:27:32.919Z,62.43
2023-05-14T07:28:33.907Z,62.73
2023-05-14T07:29:32.899Z,62.70
2023-05-14T07:30:32.892Z,62.47
2023-05-14T07:31:32.924Z,62.34
2023-05-14T07:32:32.981Z,62.21
2023-05-14T07:33:32.874Z,62.35
2023-05-14T07:34:32.889Z,61.22
2023-05-14T07:35:32.858Z,59.32
2023-05-14T07:36:32.882Z,58.99
2023-05-14T07:37:32.842Z,58.59
2023-05-14T07:38:32.843Z,58.22
2023-05-14T07:39:32.831Z,58.82
2023-05-14T07:40:32.832Z,59.12
2023-05-14T07:41:32.809Z,58.12
2023-05-14T07:42:36.792Z,57.42
2023-05-14T07:43:33.803Z,59.69
2023-05-14T07:44:32.814Z,57.59
2023-05-14T07:45:32.936Z,56.99
2023-05-14T07:46:32.796Z,57.17
2023-05-14T07:47:33.115Z,57.64
2023-05-14T07:48:32.789Z,56.74
2023-05-14T07:49:32.777Z,55.21
2023-05-14T07:50:32.791Z,56.24
2023-05-14T07:51:33.763Z,56.71
2023-05-14T07:52:32.731Z,56.11
2023-05-14T07:53:32.782Z,56.18
2023-05-14T07:54:32.721Z,55.09
2023-05-14T07:55:32.840Z,55.39
2023-05-14T07:56:32.706Z,55.04
2023-05-14T07:57:32.705Z,54.94
2023-05-14T07:58:32.705Z,52.84
2023-05-14T07:59:32.699Z,53.06
2023-05-14T08:00:32.682Z,54.06
2023-05-14T08:01:32.733Z,55.06
2023-05-14T08:02:32.734Z,54.74
2023-05-14T08:03:32.773Z,52.84
2023-05-14T08:04:32.707Z,53.71
2023-05-14T08:05:32.652Z,53.71
2023-05-14T08:06:32.693Z,52.59
2023-05-14T08:07:32.637Z,52.19
2023-05-14T08:08:32.632Z,52.00
2023-05-14T08:09:32.627Z,51.67
2023-05-14T08:10:32.651Z,53.19
2023-05-14T08:11:32.627Z,53.78
2023-05-14T08:12:32.617Z,52.79
2023-05-14T08:13:32.616Z,53.39
2023-05-14T08:14:32.591Z,52.09
2023-05-14T08:15:32.599Z,52.00
2023-05-14T08:16:32.605Z,52.00
2023-05-14T08:17:32.609Z,52.19
2023-05-14T08:18:32.593Z,50.70
2023-05-14T08:19:32.578Z,51.77
2023-05-14T08:20:32.571Z,51.35
2023-05-14T08:21:32.551Z,51.75
2023-05-14T08:22:32.567Z,51.54
2023-05-14T08:23:32.554Z,49.88
2023-05-14T08:24:32.532Z,52.47
2023-05-14T08:25:32.553Z,52.37
2023-05-14T08:26:32.520Z,50.38
2023-05-14T08:27:32.537Z,50.57
2023-05-14T08:28:32.526Z,51.54
2023-05-14T08:29:32.510Z,50.68
2023-05-14T08:30:32.517Z,50.38
2023-05-14T08:31:32.525Z,49.58
2023-05-14T08:32:32.554Z,50.18
2023-05-14T08:33:32.479Z,51.07
2023-05-14T08:34:32.474Z,51.47
2023-05-14T08:35:32.477Z,49.58
2023-05-14T08:36:32.466Z,50.57
2023-05-14T08:37:32.528Z,51.37
2023-05-14T08:38:32.456Z,51.25
2023-05-14T08:39:32.442Z,49.85
2023-05-14T08:40:32.428Z,50.27
2023-05-14T08:41:32.442Z,50.43
2023-05-14T08:42:32.430Z,50.05
2023-05-14T08:43:32.443Z,49.24
2023-05-14T08:44:32.414Z,48.25
2023-05-14T08:45:32.411Z,47.73
2023-05-14T08:46:32.407Z,48.92
2023-05-14T08:47:32.428Z,47.53
2023-05-14T08:48:32.468Z,47.73
2023-05-14T08:49:32.394Z,47.13
2023-05-14T08:50:32.412Z,47.88
2023-05-14T08:51:32.358Z,46.64
2023-05-14T08:52:32.383Z,46.47
2023-05-14T08:53:32.345Z,44.49
2023-05-14T08:54:32.337Z,47.37
2023-05-14T08:55:32.344Z,44.83
2023-05-14T08:56:32.353Z,45.34
2023-05-14T08:57:32.334Z,39.68
2023-05-14T08:58:32.335Z,42.34
2023-05-14T08:59:32.315Z,40.39
2023-05-14T09:00:32.302Z,41.81
2023-05-14T09:01:32.343Z,40.15
2023-05-14T09:02:32.299Z,40.66
2023-05-14T09:03:32.284Z,40.78
2023-05-14T09:04:32.293Z,41.02
2023-05-14T09:05:33.273Z,41.36
2023-05-14T09:06:32.273Z,42.29
2023-05-14T09:07:32.275Z,44.29
2023-05-14T09:08:32.261Z,44.49
2023-05-14T09:09:32.247Z,44.09
2023-05-14T09:10:32.261Z,44.71
2023-05-14T09:11:32.229Z,44.11
2023-05-14T09:12:32.222Z,44.43
2023-05-14T09:13:32.233Z,45.03
2023-05-14T09:14:33.287Z,45.62
2023-05-14T09:15:32.258Z,45.92
2023-05-14T09:16:32.262Z,43.96
2023-05-14T09:17:32.492Z,45.94
2023-05-14T09:18:32.211Z,45.64
2023-05-14T09:19:32.183Z,46.79
2023-05-14T09:20:32.207Z,47.28
2023-05-14T09:21:33.549Z,45.18
2023-05-14T09:22:33.185Z,44.98
2023-05-14T09:23:32.191Z,45.65
2023-05-14T09:24:32.176Z,45.73
2023-05-14T09:25:32.136Z,43.26
2023-05-14T09:26:32.173Z,43.35
2023-05-14T09:27:32.136Z,43.16
2023-05-14T09:28:32.131Z,43.95
2023-05-14T09:29:32.128Z,43.04
2023-05-14T09:30:32.107Z,43.33
2023-05-14T09:31:32.143Z,42.54
2023-05-14T09:32:32.121Z,44.02
2023-05-14T09:33:32.094Z,42.62
2023-05-14T09:34:32.102Z,43.80
2023-05-14T09:35:32.108Z,40.90
2023-05-14T09:36:32.075Z,41.04
2023-05-14T09:37:32.071Z,40.88
2023-05-14T09:38:32.063Z,41.49
2023-05-14T09:39:32.058Z,42.43
2023-05-14T09:40:32.054Z,42.94
2023-05-14T09:41:32.049Z,41.65
2023-05-14T09:42:32.062Z,42.68
2023-05-14T09:43:32.030Z,42.99
2023-05-14T09:44:32.037Z,39.58
2023-05-14T09:45:32.018Z,39.73
2023-05-14T09:46:32.009Z,40.27
2023-05-14T09:47:32.051Z,40.19
2023-05-14T09:48:32.055Z,39.62
2023-05-14T09:49:32.001Z,41.52
2023-05-14T09:50:31.987Z,42.11
2023-05-14T09:51:31.980Z,41.43
2023-05-14T09:52:31.983Z,41.45
2023-05-14T09:53:31.965Z,38.58
2023-05-14T09:54:31.975Z,38.14
2023-05-14T09:55:31.950Z,39.65
2023-05-14T09:56:31.947Z,39.81
2023-05-14T09:57:31.941Z,41.22
2023-05-14T09:58:31.934Z,37.84
2023-05-14T09:59:31.921Z,37.85
2023-05-14T10:00:31.915Z,37.51
2023-05-14T10:01:31.930Z,38.78
2023-05-14T10:02:31.948Z,37.07
2023-05-14T10:03:31.915Z,37.63
2023-05-14T10:04:31.896Z,37.65
2023-05-14T10:05:31.883Z,36.79
2023-05-14T10:06:31.870Z,37.51
2023-05-14T10:07:31.861Z,36.72
2023-05-14T10:08:31.876Z,37.05
2023-05-14T10:09:31.864Z,38.10
2023-05-14T10:10:31.869Z,38.77
2023-05-14T10:11:31.847Z,39.44
2023-05-14T10:12:31.837Z,39.01
2023-05-14T10:13:31.876Z,38.93
2023-05-14T10:14:31.831Z,38.91
2023-05-14T10:15:31.834Z,39.01
2023-05-14T10:16:31.851Z,37.98
2023-05-14T10:17:31.850Z,38.79
2023-05-14T10:18:31.837Z,41.31
2023-05-14T10:19:31.799Z,41.02
2023-05-14T10:20:31.806Z,40.05
2023-05-14T10:21:31.824Z,41.44
2023-05-14T10:22:31.796Z,41.33
2023-05-14T10:23:31.777Z,42.11
2023-05-14T10:24:31.782Z,39.42
2023-05-14T10:25:31.792Z,39.34
2023-05-14T10:26:31.764Z,38.73
2023-05-14T10:27:31.763Z,39.22
2023-05-14T10:28:31.744Z,39.04
2023-05-14T10:29:31.742Z,38.84
2023-05-14T10:30:31.731Z,39.22
2023-05-14T10:31:31.761Z,39.48
2023-05-14T10:32:31.760Z,39.58
2023-05-14T10:33:31.719Z,38.24
2023-05-14T10:34:31.750Z,37.43
2023-05-14T10:35:31.703Z,38.94
2023-05-14T10:36:31.679Z,39.87
2023-05-14T10:37:32.698Z,40.96
2023-05-14T10:38:31.679Z,40.15
2023-05-14T10:39:31.686Z,40.19
2023-05-14T10:40:31.672Z,38.69
2023-05-14T10:41:31.671Z,40.11
2023-05-14T10:42:31.836Z,39.47
2023-05-14T10:43:31.647Z,37.85
2023-05-14T10:44:31.666Z,34.75
2023-05-14T10:45:32.634Z,34.78
2023-05-14T10:46:31.690Z,35.38
2023-05-14T10:47:31.691Z,32.89
2023-05-14T10:48:31.625Z,33.98
2023-05-14T10:49:42.858Z,35.10
2023-05-14T10:50:33.613Z,36.36
2023-05-14T10:51:31.699Z,33.48
2023-05-14T10:52:31.615Z,33.67
2023-05-14T10:53:31.589Z,34.06
2023-05-14T10:54:31.592Z,34.83
2023-05-14T10:55:31.584Z,32.15
2023-05-14T10:56:31.558Z,33.46
2023-05-14T10:57:31.588Z,33.08
2023-05-14T10:58:31.823Z,34.08
2023-05-14T10:59:31.554Z,33.69
2023-05-14T11:00:31.559Z,32.43
2023-05-14T11:01:31.571Z,35.71
2023-05-14T11:02:31.568Z,34.25
2023-05-14T11:03:31.570Z,35.03
2023-05-14T11:04:31.601Z,37.57
2023-05-14T11:05:31.526Z,33.61
2023-05-14T11:06:31.521Z,35.18
2023-05-14T11:07:31.510Z,34.95
2023-05-14T11:08:31.508Z,36.18
2023-05-14T11:09:31.513Z,34.00
2023-05-14T11:10:31.518Z,31.57
2023-05-14T11:11:31.489Z,30.99
2023-05-14T11:12:31.481Z,33.10
2023-05-14T11:13:31.470Z,33.70
2023-05-14T11:14:31.466Z,34.46
2023-05-14T11:15:31.485Z,33.85
2023-05-14T11:16:31.506Z,32.81
2023-05-14T11:17:31.469Z,34.20
2023-05-14T11:18:31.525Z,35.47
2023-05-14T11:19:31.456Z,33.59
2023-05-14T11:20:31.489Z,35.46
2023-05-14T11:21:31.498Z,34.74
2023-05-14T11:22:31.430Z,33.64
2023-05-14T11:23:31.433Z,32.18
2023-05-14T11:24:31.432Z,31.35
2023-05-14T11:25:31.419Z,33.65
2023-05-14T11:26:31.449Z,34.44
2023-05-14T11:27:31.417Z,34.46
2023-05-14T11:28:31.406Z,34.38
2023-05-14T11:29:31.376Z,34.49
2023-05-14T11:30:31.404Z,35.89
2023-05-14T11:31:31.511Z,35.41
2023-05-14T11:32:31.372Z,36.22
2023-05-14T11:33:31.374Z,35.96
2023-05-14T11:34:31.377Z,37.26
2023-05-14T11:35:31.392Z,39.26
2023-05-14T11:36:31.354Z,38.37
2023-05-14T11:37:31.344Z,39.16
2023-05-14T11:38:31.347Z,38.29
2023-05-14T11:39:31.335Z,38.59
2023-05-14T11:40:31.334Z,39.87
2023-05-14T11:41:31.327Z,39.29
2023-05-14T11:42:31.322Z,38.72
2023-05-14T11:43:31.332Z,40.23
2023-05-14T11:44:31.311Z,40.33
2023-05-14T11:45:31.320Z,41.41
2023-05-14T11:46:31.422Z,41.04
2023-05-14T11:47:31.322Z,41.44
2023-05-14T11:48:31.278Z,40.42
2023-05-14T11:49:31.266Z,39.83
2023-05-14T11:50:31.291Z,40.60
2023-05-14T11:51:31.268Z,39.34
2023-05-14T11:52:31.250Z,40.82
2023-05-14T11:53:31.249Z,39.93
2023-05-14T11:54:31.243Z,40.03
2023-05-14T11:55:31.257Z,40.03
2023-05-14T11:56:31.285Z,39.91
2023-05-14T11:57:31.231Z,40.19
2023-05-14T11:58:31.293Z,38.40
2023-05-14T11:59:31.205Z,40.29
2023-05-14T12:00:31.198Z,40.74
2023-05-14T12:01:31.229Z,39.12
2023-05-14T12:02:31.343Z,38.49
2023-05-14T12:03:31.232Z,36.61
2023-05-14T12:04:31.260Z,38.26
2023-05-14T12:05:31.161Z,36.66
2023-05-14T12:06:31.157Z,35.84
2023-05-14T12:07:31.158Z,36.11
2023-05-14T12:08:31.155Z,36.51
2023-05-14T12:09:31.142Z,36.67
2023-05-14T12:10:31.131Z,35.57
2023-05-14T12:11:31.191Z,35.87
2023-05-14T12:12:31.137Z,34.18
2023-05-14T12:13:31.126Z,33.79
2023-05-14T12:14:31.116Z,34.66
2023-05-14T12:15:31.107Z,33.08
2023-05-14T12:16:31.251Z,34.66
2023-05-14T12:17:31.909Z,33.67
2023-05-14T12:18:31.300Z,33.94
2023-05-14T12:19:31.101Z,33.23
2023-05-14T12:20:31.096Z,32.53
2023-05-14T12:21:31.053Z,31.45
2023-05-14T12:22:31.060Z,31.84
2023-05-14T12:23:31.050Z,31.35
2023-05-14T12:24:31.040Z,31.65
2023-05-14T12:25:31.035Z,32.04
2023-05-14T12:26:31.060Z,31.93
2023-05-14T12:27:31.083Z,30.87
2023-05-14T12:28:31.032Z,30.68
2023-05-14T12:29:31.022Z,30.30
2023-05-14T12:30:31.016Z,30.02
2023-05-14T12:31:31.022Z,31.02
2023-05-14T12:32:31.025Z,31.15
2023-05-14T12:33:30.994Z,32.57
2023-05-14T12:34:30.971Z,31.82
2023-05-14T12:35:30.973Z,32.42
2023-05-14T12:36:30.995Z,32.73
2023-05-14T12:37:31.383Z,32.95
2023-05-14T12:38:31.958Z,34.05
2023-05-14T12:39:30.949Z,35.17
2023-05-14T12:40:30.933Z,34.51
2023-05-14T12:41:30.923Z,36.03
2023-05-14T12:42:30.925Z,36.48
2023-05-14T12:43:30.938Z,36.94
2023-05-14T12:44:30.919Z,38.18
2023-05-14T12:45:30.914Z,40.30
2023-05-14T12:46:30.920Z,41.89
2023-05-14T12:47:30.911Z,42.07
2023-05-14T12:48:30.883Z,41.53
2023-05-14T12:49:30.894Z,42.80
2023-05-14T12:50:30.914Z,42.39
2023-05-14T12:51:30.867Z,41.16
2023-05-14T12:52:37.731Z,41.73